createdAt,value
2017-11-03T00:00:16.037Z,13.45
2017-11-03T00:02:42.659Z,13.47
2017-11-03T00:05:08.590Z,13.50
2017-11-03T00:07:34.523Z,13.50
2017-11-03T00:10:00.457Z,13.49
2017-11-03T00:12:26.591Z,13.47
2017-11-03T00:14:52.521Z,13.47
2017-11-03T00:17:18.505Z,13.58
2017-11-03T00:19:44.481Z,13.50
2017-11-03T00:22:10.423Z,13.50
2017-11-03T00:24:36.344Z,13.53
2017-11-03T00:27:02.303Z,13.48
2017-11-03T00:29:28.247Z,13.49
2017-11-03T00:31:54.223Z,13.52
2017-11-03T00:34:20.252Z,13.49
2017-11-03T00:36:46.206Z,13.51
2017-11-03T00:39:12.125Z,13.48
2017-11-03T00:41:38.063Z,13.47
2017-11-03T00:44:03.987Z,13.48
2017-11-03T00:46:29.948Z,13.43
2017-11-03T00:48:55.886Z,13.46
2017-11-03T00:51:21.849Z,13.46
2017-11-03T00:53:47.818Z,13.37
2017-11-03T00:56:13.763Z,13.41
2017-11-03T00:58:39.711Z,13.48
2017-11-03T01:01:05.639Z,13.54
2017-11-03T01:03:31.563Z,13.47
2017-11-03T01:05:57.483Z,13.50
2017-11-03T01:08:23.408Z,13.39
2017-11-03T01:10:49.367Z,13.38
2017-11-03T01:13:15.360Z,13.42
2017-11-03T01:15:41.311Z,13.46
2017-11-03T01:18:07.328Z,13.46
2017-11-03T01:20:33.279Z,13.50
2017-11-03T01:22:59.416Z,13.48
2017-11-03T01:25:25.351Z,13.54
2017-11-03T01:27:51.299Z,13.51
2017-11-03T01:30:17.243Z,13.25
2017-11-03T01:32:43.183Z,13.34
2017-11-03T01:35:09.187Z,13.43
2017-11-03T01:37:35.115Z,13.44
2017-11-03T01:40:01.051Z,13.37
2017-11-03T01:42:26.984Z,13.31
2017-11-03T01:44:52.941Z,13.38
2017-11-03T01:47:18.886Z,13.49
2017-11-03T01:49:44.835Z,13.46
2017-11-03T01:52:10.772Z,13.51
2017-11-03T01:54:36.719Z,13.38
2017-11-03T01:57:02.651Z,13.36
2017-11-03T01:59:28.617Z,13.44
2017-11-03T02:01:54.555Z,13.44
2017-11-03T02:04:20.475Z,13.39
2017-11-03T02:06:46.421Z,13.39
2017-11-03T02:09:12.347Z,13.38
2017-11-03T02:11:38.276Z,13.43
2017-11-03T02:14:04.196Z,13.46
2017-11-03T02:16:30.115Z,13.40
2017-11-03T02:18:56.039Z,13.43
2017-11-03T02:21:22.267Z,13.33
2017-11-03T02:23:48.214Z,13.40
2017-11-03T02:26:14.149Z,13.37
2017-11-03T02:28:40.081Z,13.34
2017-11-03T02:31:06.007Z,13.33
2017-11-03T02:33:31.926Z,13.37
2017-11-03T02:35:57.860Z,13.34
2017-11-03T02:38:23.777Z,13.38
2017-11-03T02:40:49.715Z,13.29
2017-11-03T02:43:15.657Z,13.28
2017-11-03T02:45:41.581Z,13.30
2017-11-03T02:48:07.523Z,13.25
2017-11-03T02:50:33.519Z,13.27
2017-11-03T02:52:59.452Z,13.30
2017-11-03T02:55:25.374Z,13.31
2017-11-03T02:57:51.322Z,13.25
2017-11-03T03:00:17.247Z,13.33
2017-11-03T03:02:43.198Z,13.25
2017-11-03T03:05:09.119Z,13.32
2017-11-03T03:07:35.035Z,13.40
2017-11-03T03:10:00.966Z,13.33
2017-11-03T03:12:26.925Z,13.32
2017-11-03T03:14:52.847Z,13.36
2017-11-03T03:17:18.763Z,13.31
2017-11-03T03:19:44.691Z,13.37
2017-11-03T03:22:10.637Z,13.36
2017-11-03T03:24:36.561Z,13.40
2017-11-03T03:27:02.505Z,13.30
2017-11-03T03:29:28.430Z,13.32
2017-11-03T03:31:54.351Z,13.22
2017-11-03T03:34:20.287Z,13.29
2017-11-03T03:36:46.207Z,13.36
2017-11-03T03:39:12.150Z,13.26
2017-11-03T03:41:38.074Z,13.26
2017-11-03T03:44:03.995Z,13.27
2017-11-03T03:46:29.939Z,13.31
2017-11-03T03:48:55.875Z,13.11
2017-11-03T03:51:21.795Z,13.11
2017-11-03T03:53:47.791Z,13.08
2017-11-03T03:56:13.727Z,13.19
2017-11-03T03:58:39.659Z,13.26
2017-11-03T04:01:05.591Z,13.24
2017-11-03T04:03:31.515Z,13.24
2017-11-03T04:05:57.455Z,13.30
2017-11-03T04:08:23.387Z,13.30
2017-11-03T04:10:49.325Z,13.25
2017-11-03T04:13:15.247Z,13.29
2017-11-03T04:15:41.212Z,13.27
2017-11-03T04:18:07.133Z,13.27
2017-11-03T04:20:33.059Z,13.22
2017-11-03T04:22:58.987Z,13.29
2017-11-03T04:25:24.903Z,13.23
2017-11-03T04:27:50.824Z,13.30
2017-11-03T04:30:16.767Z,13.24
2017-11-03T04:32:42.703Z,13.19
2017-11-03T04:35:08.630Z,13.24
2017-11-03T04:37:34.571Z,13.29
2017-11-03T04:40:00.535Z,13.19
2017-11-03T04:42:26.455Z,13.22
2017-11-03T04:44:52.440Z,13.20
2017-11-03T04:47:18.399Z,13.28
2017-11-03T04:49:44.327Z,13.21
2017-11-03T04:52:10.309Z,13.20
2017-11-03T04:54:36.325Z,13.20
2017-11-03T04:57:02.339Z,13.28
2017-11-03T04:59:28.271Z,13.26
2017-11-03T05:01:54.205Z,13.21
2017-11-03T05:04:20.203Z,13.18
2017-11-03T05:06:46.147Z,13.16
2017-11-03T05:09:12.089Z,13.26
2017-11-03T05:11:38.023Z,13.18
2017-11-03T05:14:03.979Z,13.23
2017-11-03T05:16:29.907Z,13.30
2017-11-03T05:18:55.830Z,13.13
2017-11-03T05:21:21.755Z,13.14
2017-11-03T05:23:47.675Z,13.15
2017-11-03T05:26:13.636Z,13.16
2017-11-03T05:28:39.568Z,13.19
2017-11-03T05:31:05.521Z,13.21
2017-11-03T05:33:31.446Z,13.12
2017-11-03T05:35:57.380Z,13.19
2017-11-03T05:38:23.335Z,13.17
2017-11-03T05:40:49.279Z,13.20
2017-11-03T05:43:15.209Z,13.20
2017-11-03T05:45:41.131Z,13.11
2017-11-03T05:48:07.059Z,13.15
2017-11-03T05:50:32.979Z,13.12
2017-11-03T05:52:58.909Z,13.16
2017-11-03T05:55:24.889Z,13.16
2017-11-03T05:57:50.855Z,13.14
2017-11-03T06:00:16.784Z,13.15
2017-11-03T06:02:42.726Z,13.21
2017-11-03T06:05:08.666Z,13.20
2017-11-03T06:07:34.634Z,13.24
2017-11-03T06:10:00.559Z,13.27
2017-11-03T06:12:26.497Z,13.24
2017-11-03T06:14:52.456Z,13.15
2017-11-03T06:17:18.388Z,13.19
2017-11-03T06:19:44.367Z,13.15
2017-11-03T06:22:10.298Z,13.27
2017-11-03T06:24:36.237Z,13.25
2017-11-03T06:27:02.189Z,13.30
2017-11-03T06:29:28.118Z,13.18
2017-11-03T06:31:54.044Z,13.08
2017-11-03T06:34:19.981Z,13.09
2017-11-03T06:36:45.939Z,13.16
2017-11-03T06:39:11.870Z,13.14
2017-11-03T06:41:37.818Z,13.19
2017-11-03T06:44:03.756Z,13.20
2017-11-03T06:46:29.670Z,13.12
2017-11-03T06:48:55.612Z,13.24
2017-11-03T06:51:21.552Z,13.24
2017-11-03T06:53:47.492Z,13.29
2017-11-03T06:56:13.632Z,13.22
2017-11-03T06:58:39.563Z,13.26
2017-11-03T07:01:05.513Z,13.23
2017-11-03T07:03:31.454Z,13.26
2017-11-03T07:05:57.404Z,13.43
2017-11-03T07:08:23.355Z,13.53
2017-11-03T07:10:49.282Z,13.42
2017-11-03T07:13:15.234Z,13.30
2017-11-03T07:15:41.177Z,13.42
2017-11-03T07:18:07.133Z,13.37
2017-11-03T07:20:33.074Z,13.33
2017-11-03T07:22:59.007Z,13.39
2017-11-03T07:25:24.953Z,13.42
2017-11-03T07:27:50.902Z,13.50
2017-11-03T07:30:16.828Z,13.40
2017-11-03T07:32:42.765Z,13.47
2017-11-03T07:35:08.702Z,13.51
2017-11-03T07:37:34.671Z,13.41
2017-11-03T07:40:00.610Z,13.50
2017-11-03T07:42:26.554Z,13.61
2017-11-03T07:44:52.496Z,13.80
2017-11-03T07:47:18.441Z,13.78
2017-11-03T07:49:44.379Z,13.55
2017-11-03T07:52:10.343Z,13.70
2017-11-03T07:54:36.289Z,13.88
2017-11-03T07:57:02.235Z,13.87
2017-11-03T07:59:28.162Z,13.90
2017-11-03T08:01:54.094Z,13.90
2017-11-03T08:04:20.056Z,13.97
2017-11-03T08:06:45.995Z,13.81
2017-11-03T08:09:11.925Z,13.80
2017-11-03T08:11:37.868Z,13.95
2017-11-03T08:14:03.790Z,13.94
2017-11-03T08:16:29.727Z,13.93
2017-11-03T08:18:55.676Z,14.05
2017-11-03T08:21:21.647Z,14.12
2017-11-03T08:23:47.600Z,14.01
2017-11-03T08:26:13.580Z,14.01
2017-11-03T08:28:39.522Z,14.02
2017-11-03T08:31:05.496Z,13.96
2017-11-03T08:33:31.414Z,14.08
2017-11-03T08:35:57.348Z,13.92
2017-11-03T08:38:23.270Z,13.90
2017-11-03T08:40:49.208Z,13.99
2017-11-03T08:43:15.148Z,14.15
2017-11-03T08:45:41.091Z,14.11
2017-11-03T08:48:07.131Z,14.21
2017-11-03T08:50:33.076Z,14.36
2017-11-03T08:52:59.022Z,14.30
2017-11-03T08:55:24.988Z,14.36
2017-11-03T08:57:50.918Z,14.39
2017-11-03T09:00:16.894Z,14.42
2017-11-03T09:02:42.852Z,14.40
2017-11-03T09:05:08.797Z,14.52
2017-11-03T09:07:34.792Z,14.58
2017-11-03T09:10:00.734Z,14.46
2017-11-03T09:12:26.678Z,14.56
2017-11-03T09:14:52.624Z,14.43
2017-11-03T09:17:18.586Z,14.50
2017-11-03T09:19:44.554Z,14.57
2017-11-03T09:22:10.504Z,14.66
2017-11-03T09:24:36.526Z,14.65
2017-11-03T09:27:02.457Z,14.69
2017-11-03T09:29:28.402Z,14.68
2017-11-03T09:31:54.345Z,14.63
2017-11-03T09:34:20.270Z,14.74
2017-11-03T09:36:46.202Z,14.81
2017-11-03T09:39:12.137Z,14.90
2017-11-03T09:41:38.099Z,14.95
2017-11-03T09:44:04.033Z,15.09
2017-11-03T09:46:29.978Z,15.19
2017-11-03T09:48:56.860Z,15.21
2017-11-03T09:51:22.791Z,15.17
2017-11-03T09:53:48.749Z,15.02
2017-11-03T09:56:14.687Z,15.05
2017-11-03T09:58:40.633Z,15.14
2017-11-03T10:01:06.626Z,15.13
2017-11-03T10:03:32.600Z,15.08
2017-11-03T10:05:58.568Z,15.01
2017-11-03T10:08:24.524Z,15.10
2017-11-03T10:10:50.504Z,15.06
2017-11-03T10:13:16.466Z,15.02
2017-11-03T10:15:42.406Z,14.90
2017-11-03T10:18:08.441Z,14.93
2017-11-03T10:20:34.380Z,14.88
2017-11-03T10:23:00.313Z,14.94
2017-11-03T10:25:26.277Z,15.02
2017-11-03T10:27:52.218Z,15.00
2017-11-03T10:30:18.155Z,14.89
2017-11-03T10:32:44.090Z,14.94
2017-11-03T10:35:10.034Z,14.85
2017-11-03T10:37:35.980Z,15.02
2017-11-03T10:40:01.921Z,15.05
2017-11-03T10:42:27.868Z,14.98
2017-11-03T10:44:53.822Z,15.01
2017-11-03T10:47:19.777Z,14.88
2017-11-03T10:49:45.714Z,14.86
2017-11-03T10:52:11.677Z,14.85
2017-11-03T10:54:37.651Z,14.83
2017-11-03T10:57:03.619Z,15.02
2017-11-03T10:59:29.594Z,15.01
2017-11-03T11:01:55.543Z,14.98
2017-11-03T11:04:21.479Z,15.00
2017-11-03T11:06:48.459Z,14.97
2017-11-03T11:09:14.498Z,14.81
2017-11-03T11:11:40.470Z,14.86
2017-11-03T11:14:06.428Z,14.86
2017-11-03T11:16:32.386Z,14.84
2017-11-03T11:18:58.354Z,14.74
2017-11-03T11:21:24.283Z,14.80
2017-11-03T11:23:50.248Z,14.75
2017-11-03T11:26:16.218Z,14.83
2017-11-03T11:28:42.172Z,14.88
2017-11-03T11:31:08.122Z,14.89
2017-11-03T11:33:34.063Z,14.94
2017-11-03T11:36:00.007Z,15.00
2017-11-03T11:38:25.937Z,15.16
2017-11-03T11:40:51.872Z,15.22
2017-11-03T11:43:17.833Z,15.23
2017-11-03T11:45:43.759Z,15.32
2017-11-03T11:48:09.693Z,15.28
2017-11-03T11:50:35.685Z,15.30
2017-11-03T11:53:01.629Z,15.32
2017-11-03T11:55:27.574Z,15.33
2017-11-03T11:57:53.523Z,15.22
2017-11-03T12:00:19.480Z,15.25
2017-11-03T12:02:45.416Z,15.19
2017-11-03T12:05:11.383Z,15.20
2017-11-03T12:07:37.318Z,15.23
2017-11-03T12:10:03.252Z,15.27
2017-11-03T12:12:29.204Z,15.21
2017-11-03T12:14:55.143Z,15.26
2017-11-03T12:17:21.112Z,15.26
2017-11-03T12:19:47.055Z,15.33
2017-11-03T12:22:12.980Z,15.33
2017-11-03T12:24:38.928Z,15.34
2017-11-03T12:27:04.872Z,15.23
2017-11-03T12:29:30.881Z,15.45
2017-11-03T12:31:56.810Z,15.42
2017-11-03T12:34:22.768Z,15.43
2017-11-03T12:36:48.728Z,15.35
2017-11-03T12:39:14.669Z,15.37
2017-11-03T12:41:40.604Z,15.47
2017-11-03T12:44:06.536Z,15.44
2017-11-03T12:46:32.469Z,15.37
2017-11-03T12:48:58.463Z,15.49
2017-11-03T12:51:24.412Z,15.47
2017-11-03T12:53:50.356Z,15.44
2017-11-03T12:56:16.312Z,15.44
2017-11-03T12:58:45.567Z,15.41
2017-11-03T13:01:11.509Z,15.48
2017-11-03T13:03:37.446Z,15.42
2017-11-03T13:06:03.389Z,15.36
2017-11-03T13:08:29.360Z,15.28
2017-11-03T13:10:55.299Z,15.42
2017-11-03T13:13:21.234Z,15.40
2017-11-03T13:15:47.197Z,15.32
2017-11-03T13:18:13.159Z,15.38
2017-11-03T13:20:39.097Z,15.37
2017-11-03T13:23:05.063Z,15.37
2017-11-03T13:25:30.997Z,15.44
2017-11-03T13:27:56.959Z,15.57
2017-11-03T13:30:22.897Z,15.50
2017-11-03T13:32:48.907Z,15.50
2017-11-03T13:35:14.848Z,15.55
2017-11-03T13:37:40.815Z,15.51
2017-11-03T13:40:06.792Z,15.51
2017-11-03T13:42:32.739Z,15.59
2017-11-03T13:44:58.715Z,15.50
2017-11-03T13:47:24.642Z,15.49
2017-11-03T13:49:50.581Z,15.45
2017-11-03T13:52:16.523Z,15.47
2017-11-03T13:54:42.465Z,15.55
2017-11-03T13:57:08.445Z,15.51
2017-11-03T13:59:34.391Z,15.43
2017-11-03T14:02:00.359Z,15.35
2017-11-03T14:04:26.301Z,15.33
2017-11-03T14:06:52.238Z,15.38
2017-11-03T14:09:18.216Z,15.28
2017-11-03T14:11:44.166Z,15.37
2017-11-03T14:14:10.109Z,15.28
2017-11-03T14:16:36.049Z,15.21
2017-11-03T14:19:02.053Z,15.23
2017-11-03T14:21:28.014Z,15.27
2017-11-03T14:23:53.958Z,15.14
2017-11-03T14:26:19.907Z,15.16
2017-11-03T14:28:45.859Z,15.17
2017-11-03T14:31:11.825Z,15.30
2017-11-03T14:33:37.751Z,15.28
2017-11-03T14:36:03.763Z,15.17
2017-11-03T14:38:29.749Z,15.25
2017-11-03T14:40:55.673Z,15.22
2017-11-03T14:43:21.623Z,15.24
2017-11-03T14:45:47.547Z,15.12
2017-11-03T14:48:13.572Z,15.08
2017-11-03T14:50:39.520Z,15.22
2017-11-03T14:53:05.472Z,15.29
2017-11-03T14:55:31.433Z,15.29
2017-11-03T14:57:57.505Z,15.32
2017-11-03T15:00:23.475Z,15.14
2017-11-03T15:02:49.492Z,15.03
2017-11-03T15:05:15.466Z,14.98
2017-11-03T15:07:41.422Z,15.05
2017-11-03T15:10:07.373Z,15.16
2017-11-03T15:12:33.485Z,14.87
2017-11-03T15:14:59.655Z,14.70
2017-11-03T15:17:25.673Z,14.73
2017-11-03T15:19:51.639Z,14.68
2017-11-03T15:22:17.650Z,14.52
2017-11-03T15:24:43.679Z,14.55
2017-11-03T15:27:09.613Z,14.79
2017-11-03T15:29:35.571Z,14.62
2017-11-03T15:32:01.503Z,14.41
2017-11-03T15:34:27.485Z,14.46
2017-11-03T15:36:53.588Z,14.25
2017-11-03T15:39:19.569Z,14.08
2017-11-03T15:41:45.591Z,14.20
2017-11-03T15:44:11.534Z,14.26
2017-11-03T15:46:37.535Z,14.02
2017-11-03T15:49:03.488Z,14.09
2017-11-03T15:51:29.489Z,14.13
2017-11-03T15:53:55.421Z,14.02
2017-11-03T15:56:21.405Z,13.96
2017-11-03T15:58:47.353Z,13.86
2017-11-03T16:01:13.357Z,13.79
2017-11-03T16:03:39.327Z,13.73
2017-11-03T16:06:05.349Z,13.62
2017-11-03T16:08:31.358Z,13.58
2017-11-03T16:10:57.379Z,13.58
2017-11-03T16:13:23.315Z,13.47
2017-11-03T16:15:49.262Z,13.34
2017-11-03T16:18:15.347Z,13.35
2017-11-03T16:20:41.333Z,13.32
2017-11-03T16:23:07.315Z,13.45
2017-11-03T16:25:33.349Z,13.39
2017-11-03T16:27:59.290Z,13.12
2017-11-03T16:30:25.257Z,13.21
2017-11-03T16:32:52.072Z,13.32
2017-11-03T16:35:18.015Z,13.15
2017-11-03T16:37:43.963Z,12.94
2017-11-03T16:40:09.972Z,13.05
2017-11-03T16:42:36.003Z,13.09
2017-11-03T16:45:02.013Z,12.73
2017-11-03T16:47:27.977Z,12.97
2017-11-03T16:49:53.975Z,12.88
2017-11-03T16:52:19.943Z,12.90
2017-11-03T16:54:45.887Z,12.66
2017-11-03T16:57:11.820Z,12.66
2017-11-03T16:59:37.743Z,12.59
2017-11-03T17:02:03.722Z,12.47
2017-11-03T17:04:29.651Z,12.88
2017-11-03T17:06:55.629Z,12.83
2017-11-03T17:09:21.574Z,12.46
2017-11-03T17:11:47.517Z,12.51
2017-11-03T17:14:13.473Z,12.61
2017-11-03T17:16:39.412Z,12.91
2017-11-03T17:19:05.366Z,12.64
2017-11-03T17:21:31.311Z,12.55
2017-11-03T17:23:57.262Z,12.63
2017-11-03T17:26:23.205Z,12.71
2017-11-03T17:28:49.216Z,12.68
2017-11-03T17:31:15.191Z,12.41
2017-11-03T17:33:41.150Z,12.40
2017-11-03T17:36:07.142Z,12.39
2017-11-03T17:38:33.092Z,12.11
2017-11-03T17:40:59.049Z,12.36
2017-11-03T17:43:25.069Z,12.33
2017-11-03T17:45:51.019Z,12.19
2017-11-03T17:48:16.965Z,12.39
2017-11-03T17:50:42.916Z,12.38
2017-11-03T17:53:08.948Z,12.50
2017-11-03T17:55:34.898Z,12.69
2017-11-03T17:58:00.851Z,12.69
2017-11-03T18:00:26.841Z,12.31
2017-11-03T18:02:52.781Z,12.10
2017-11-03T18:05:18.737Z,12.26
2017-11-03T18:07:44.811Z,12.08
2017-11-03T18:10:10.767Z,11.92
2017-11-03T18:12:36.952Z,12.10
2017-11-03T18:15:02.911Z,12.04
2017-11-03T18:17:28.875Z,11.63
2017-11-03T18:19:54.822Z,12.15
2017-11-03T18:22:20.941Z,11.65
2017-11-03T18:24:46.939Z,11.60
2017-11-03T18:27:12.983Z,11.95
2017-11-03T18:29:39.006Z,11.51
2017-11-03T18:32:04.980Z,11.41
2017-11-03T18:34:30.939Z,11.52
2017-11-03T18:36:56.919Z,11.33
2017-11-03T18:39:22.860Z,11.14
2017-11-03T18:41:48.812Z,11.10
2017-11-03T18:44:14.803Z,11.38
2017-11-03T18:46:40.743Z,11.52
2017-11-03T18:49:06.699Z,11.33
2017-11-03T18:51:32.653Z,11.46
2017-11-03T18:53:58.864Z,11.23
2017-11-03T18:56:24.842Z,10.78
2017-11-03T18:58:50.893Z,10.89
2017-11-03T19:01:16.835Z,10.69
2017-11-03T19:03:42.800Z,10.73
2017-11-03T19:06:08.987Z,10.84
2017-11-03T19:08:34.931Z,10.84
2017-11-03T19:11:00.890Z,10.97
2017-11-03T19:13:26.861Z,11.00
2017-11-03T19:15:52.880Z,11.05
2017-11-03T19:18:18.939Z,11.04
2017-11-03T19:20:44.886Z,11.01
2017-11-03T19:23:10.873Z,10.81
2017-11-03T19:25:36.896Z,10.81
2017-11-03T19:28:02.868Z,11.08
2017-11-03T19:30:28.818Z,11.04
2017-11-03T19:32:54.879Z,10.92
2017-11-03T19:35:21.051Z,10.84
2017-11-03T19:37:47.023Z,10.80
2017-11-03T19:40:12.957Z,10.59
2017-11-03T19:42:38.938Z,10.68
2017-11-03T19:45:05.490Z,10.61
2017-11-03T19:47:31.465Z,10.68
2017-11-03T19:49:57.440Z,10.75
2017-11-03T19:52:23.489Z,10.62
2017-11-03T19:54:49.812Z,10.62
2017-11-03T19:57:15.793Z,10.42
2017-11-03T19:59:41.750Z,10.53
2017-11-03T20:02:07.692Z,10.44
2017-11-03T20:04:33.623Z,10.48
2017-11-03T20:06:59.581Z,10.62
2017-11-03T20:09:25.614Z,10.58
2017-11-03T20:11:51.569Z,10.46
2017-11-03T20:14:17.541Z,10.46
2017-11-03T20:16:43.580Z,10.57
2017-11-03T20:19:09.601Z,10.82
2017-11-03T20:21:35.560Z,10.58
2017-11-03T20:24:02.577Z,10.42
2017-11-03T20:26:28.907Z,10.67
2017-11-03T20:28:54.913Z,10.66
2017-11-03T20:31:20.893Z,10.54
2017-11-03T20:33:47.126Z,10.66
2017-11-03T20:36:13.144Z,10.73
2017-11-03T20:38:39.100Z,10.47
2017-11-03T20:41:05.076Z,10.35
2017-11-03T20:43:31.385Z,10.25
2017-11-03T20:45:57.340Z,10.45
2017-11-03T20:48:23.374Z,10.13
2017-11-03T20:50:49.743Z,10.12
2017-11-03T20:53:15.683Z,9.95
2017-11-03T20:55:43.070Z,9.91
2017-11-03T20:58:09.222Z,10.01
2017-11-03T21:00:35.298Z,10.01
2017-11-03T21:03:01.533Z,10.21
2017-11-03T21:05:27.644Z,10.26
2017-11-03T21:07:53.891Z,9.99
2017-11-03T21:10:20.298Z,10.14
2017-11-03T21:12:46.576Z,9.92
2017-11-03T21:15:12.521Z,9.72
2017-11-03T21:17:38.839Z,9.94
2017-11-03T21:20:04.996Z,9.98
2017-11-03T21:22:30.984Z,10.01
2017-11-03T21:24:57.638Z,9.99
2017-11-03T21:27:23.595Z,9.93
2017-11-03T21:29:49.558Z,9.86
2017-11-03T21:32:15.508Z,9.82
2017-11-03T21:34:41.532Z,9.77
2017-11-03T21:37:07.508Z,9.91
2017-11-03T21:39:33.562Z,9.84
2017-11-03T21:41:59.528Z,9.88
2017-11-03T21:44:25.639Z,9.88
2017-11-03T21:46:51.715Z,9.84
2017-11-03T21:49:17.705Z,9.67
2017-11-03T21:51:43.833Z,9.86
2017-11-03T21:54:09.788Z,9.70
2017-11-03T21:56:35.795Z,9.78
2017-11-03T21:59:01.764Z,9.69
2017-11-03T22:01:27.809Z,9.77
2017-11-03T22:03:53.736Z,9.63
2017-11-03T22:06:19.662Z,9.67
2017-11-03T22:08:45.585Z,9.70
2017-11-03T22:11:11.523Z,9.80
2017-11-03T22:13:37.527Z,9.80
2017-11-03T22:16:04.573Z,9.80
2017-11-03T22:18:30.560Z,9.78
2017-11-03T22:20:56.538Z,9.58
2017-11-03T22:23:22.474Z,9.49
2017-11-03T22:25:48.418Z,9.59
2017-11-03T22:28:14.376Z,9.71
2017-11-03T22:30:40.392Z,9.77
2017-11-03T22:33:06.324Z,9.55
2017-11-03T22:35:32.362Z,9.67
2017-11-03T22:37:58.313Z,9.78
2017-11-03T22:40:24.256Z,9.69
2017-11-03T22:42:50.204Z,9.55
2017-11-03T22:45:16.170Z,9.78
2017-11-03T22:47:42.094Z,9.53
2017-11-03T22:50:08.057Z,9.44
2017-11-03T22:52:34.038Z,9.32
2017-11-03T22:54:59.965Z,9.40
2017-11-03T22:57:25.897Z,9.57
2017-11-03T22:59:51.868Z,9.38
2017-11-03T23:02:17.843Z,9.58
2017-11-03T23:04:43.805Z,9.63
2017-11-03T23:07:09.749Z,9.67
2017-11-03T23:09:35.700Z,9.74
2017-11-03T23:12:01.629Z,9.78
2017-11-03T23:14:27.579Z,9.71
2017-11-03T23:16:53.520Z,9.52
2017-11-03T23:19:19.474Z,9.65
2017-11-03T23:21:45.437Z,9.58
2017-11-03T23:24:11.420Z,9.57
2017-11-03T23:26:37.388Z,9.53
2017-11-03T23:29:03.339Z,9.76
2017-11-03T23:31:29.332Z,9.56
2017-11-03T23:33:55.300Z,9.58
2017-11-03T23:36:21.238Z,9.62
2017-11-03T23:38:48.033Z,9.67
2017-11-03T23:41:13.964Z,9.73
2017-11-03T23:43:40.031Z,9.67
2017-11-03T23:46:06.018Z,9.57
2017-11-03T23:48:32.008Z,9.53
2017-11-03T23:50:58.005Z,9.51
2017-11-03T23:53:24.761Z,9.43
2017-11-03T23:55:50.688Z,9.50
2017-11-03T23:58:16.756Z,9.56
